sensor_id;sensor_type;location;lat;lon;timestamp;P1;durP1;ratioP1;P2;durP2;ratioP2
57107;SDS011;42987;52.916;6.542;2022-11-15T00:00:55;33.92;;;30.17;;
57107;SDS011;42987;52.916;6.542;2022-11-15T00:03:22;31.92;;;28.52;;
57107;SDS011;42987;52.916;6.542;2022-11-15T00:05:50;32.20;;;29.00;;
57107;SDS011;42987;52.916;6.542;2022-11-15T00:08:16;31.08;;;27.98;;
57107;SDS011;42987;52.916;6.542;2022-11-15T00:10:42;32.00;;;28.80;;
57107;SDS011;42987;52.916;6.542;2022-11-15T00:13:11;34.55;;;31.13;;
57107;SDS011;42987;52.916;6.542;2022-11-15T00:15:38;29.38;;;26.45;;
57107;SDS011;42987;52.916;6.542;2022-11-15T00:18:05;32.63;;;29.25;;
57107;SDS011;42987;52.916;6.542;2022-11-15T00:20:36;31.95;;;28.55;;
57107;SDS011;42987;52.916;6.542;2022-11-15T00:23:02;31.08;;;28.02;;
57107;SDS011;42987;52.916;6.542;2022-11-15T00:25:29;30.20;;;27.13;;
57107;SDS011;42987;52.916;6.542;2022-11-15T00:27:56;31.25;;;27.95;;
57107;SDS011;42987;52.916;6.542;2022-11-15T00:30:22;31.27;;;28.27;;
57107;SDS011;42987;52.916;6.542;2022-11-15T00:32:51;29.38;;;26.45;;
57107;SDS011;42987;52.916;6.542;2022-11-15T00:35:17;31.05;;;27.75;;
57107;SDS011;42987;52.916;6.542;2022-11-15T00:37:44;33.90;;;30.38;;
57107;SDS011;42987;52.916;6.542;2022-11-15T00:40:11;31.90;;;28.73;;
57107;SDS011;42987;52.916;6.542;2022-11-15T00:42:42;32.97;;;29.65;;
57107;SDS011;42987;52.916;6.542;2022-11-15T00:45:08;34.85;;;31.15;;
57107;SDS011;42987;52.916;6.542;2022-11-15T00:47:35;33.35;;;29.83;;
57107;SDS011;42987;52.916;6.542;2022-11-15T00:50:01;32.63;;;29.30;;
57107;SDS011;42987;52.916;6.542;2022-11-15T00:52:26;31.48;;;28.17;;
57107;SDS011;42987;52.916;6.542;2022-11-15T00:54:55;33.45;;;30.05;;
57107;SDS011;42987;52.916;6.542;2022-11-15T00:57:21;34.15;;;30.75;;
57107;SDS011;42987;52.916;6.542;2022-11-15T00:59:47;33.08;;;29.77;;
57107;SDS011;42987;52.916;6.542;2022-11-15T01:02:12;32.05;;;28.80;;
57107;SDS011;42987;52.916;6.542;2022-11-15T01:04:38;32.00;;;28.63;;
57107;SDS011;42987;52.916;6.542;2022-11-15T01:07:04;32.28;;;28.77;;
57107;SDS011;42987;52.916;6.542;2022-11-15T01:09:30;30.90;;;27.70;;
57107;SDS011;42987;52.916;6.542;2022-11-15T01:11:56;32.70;;;29.15;;
57107;SDS011;42987;52.916;6.542;2022-11-15T01:14:22;33.63;;;30.13;;
57107;SDS011;42987;52.916;6.542;2022-11-15T01:16:47;34.33;;;30.67;;
57107;SDS011;42987;52.916;6.542;2022-11-15T01:19:13;33.40;;;29.65;;
57107;SDS011;42987;52.916;6.542;2022-11-15T01:21:39;31.00;;;27.73;;
57107;SDS011;42987;52.916;6.542;2022-11-15T01:24:05;31.67;;;28.35;;
57107;SDS011;42987;52.916;6.542;2022-11-15T01:26:31;33.78;;;29.33;;
57107;SDS011;42987;52.916;6.542;2022-11-15T01:28:58;31.83;;;28.42;;
57107;SDS011;42987;52.916;6.542;2022-11-15T01:31:27;33.13;;;29.50;;
57107;SDS011;42987;52.916;6.542;2022-11-15T01:33:56;33.60;;;29.92;;
57107;SDS011;42987;52.916;6.542;2022-11-15T01:36:22;34.95;;;31.10;;
57107;SDS011;42987;52.916;6.542;2022-11-15T01:38:55;31.63;;;28.23;;
57107;SDS011;42987;52.916;6.542;2022-11-15T01:41:23;35.53;;;30.33;;
57107;SDS011;42987;52.916;6.542;2022-11-15T01:43:52;35.88;;;30.52;;
57107;SDS011;42987;52.916;6.542;2022-11-15T01:46:34;35.75;;;30.92;;
57107;SDS011;42987;52.916;6.542;2022-11-15T01:49:02;34.88;;;30.33;;
57107;SDS011;42987;52.916;6.542;2022-11-15T01:51:36;36.95;;;31.35;;
57107;SDS011;42987;52.916;6.542;2022-11-15T01:54:04;37.05;;;31.00;;
57107;SDS011;42987;52.916;6.542;2022-11-15T01:56:36;32.47;;;28.88;;
57107;SDS011;42987;52.916;6.542;2022-11-15T01:59:06;35.47;;;30.60;;
57107;SDS011;42987;52.916;6.542;2022-11-15T02:01:33;37.28;;;31.75;;
57107;SDS011;42987;52.916;6.542;2022-11-15T02:04:13;36.80;;;30.85;;
57107;SDS011;42987;52.916;6.542;2022-11-15T02:06:41;38.10;;;32.85;;
57107;SDS011;42987;52.916;6.542;2022-11-15T02:09:07;34.72;;;29.90;;
57107;SDS011;42987;52.916;6.542;2022-11-15T02:11:33;38.47;;;30.48;;
57107;SDS011;42987;52.916;6.542;2022-11-15T02:13:59;37.08;;;31.13;;
57107;SDS011;42987;52.916;6.542;2022-11-15T02:19:01;39.03;;;32.03;;
57107;SDS011;42987;52.916;6.542;2022-11-15T02:38:43;34.30;;;28.92;;
57107;SDS011;42987;52.916;6.542;2022-11-15T02:44:04;39.97;;;31.27;;
57107;SDS011;42987;52.916;6.542;2022-11-15T02:46:41;38.20;;;31.98;;
57107;SDS011;42987;52.916;6.542;2022-11-15T02:49:30;35.92;;;29.40;;
57107;SDS011;42987;52.916;6.542;2022-11-15T02:52:01;39.03;;;30.23;;
57107;SDS011;42987;52.916;6.542;2022-11-15T02:54:32;39.85;;;29.77;;
57107;SDS011;42987;52.916;6.542;2022-11-15T02:57:00;36.97;;;29.90;;
57107;SDS011;42987;52.916;6.542;2022-11-15T02:59:36;39.58;;;30.85;;
57107;SDS011;42987;52.916;6.542;2022-11-15T03:08:10;40.47;;;30.00;;
57107;SDS011;42987;52.916;6.542;2022-11-15T03:13:46;46.92;;;35.00;;
57107;SDS011;42987;52.916;6.542;2022-11-15T03:16:34;49.22;;;33.63;;
57107;SDS011;42987;52.916;6.542;2022-11-15T03:21:46;51.38;;;35.53;;
57107;SDS011;42987;52.916;6.542;2022-11-15T03:24:14;58.28;;;38.22;;
57107;SDS011;42987;52.916;6.542;2022-11-15T03:26:44;55.35;;;37.42;;
57107;SDS011;42987;52.916;6.542;2022-11-15T03:29:17;54.53;;;37.95;;
57107;SDS011;42987;52.916;6.542;2022-11-15T03:31:51;53.58;;;35.50;;
57107;SDS011;42987;52.916;6.542;2022-11-15T03:34:32;56.75;;;37.47;;
57107;SDS011;42987;52.916;6.542;2022-11-15T03:37:06;55.47;;;38.05;;
57107;SDS011;42987;52.916;6.542;2022-11-15T03:39:33;64.60;;;40.67;;
57107;SDS011;42987;52.916;6.542;2022-11-15T03:45:10;70.72;;;42.75;;
57107;SDS011;42987;52.916;6.542;2022-11-15T03:47:39;77.05;;;44.75;;
57107;SDS011;42987;52.916;6.542;2022-11-15T03:50:11;64.25;;;40.05;;
57107;SDS011;42987;52.916;6.542;2022-11-15T03:52:46;72.32;;;43.83;;
57107;SDS011;42987;52.916;6.542;2022-11-15T03:55:15;64.22;;;42.90;;
57107;SDS011;42987;52.916;6.542;2022-11-15T03:57:43;66.50;;;42.97;;
57107;SDS011;42987;52.916;6.542;2022-11-15T04:00:09;73.57;;;44.33;;
57107;SDS011;42987;52.916;6.542;2022-11-15T04:02:36;69.90;;;42.92;;
57107;SDS011;42987;52.916;6.542;2022-11-15T04:05:02;72.63;;;43.97;;
57107;SDS011;42987;52.916;6.542;2022-11-15T04:07:28;78.72;;;48.90;;
57107;SDS011;42987;52.916;6.542;2022-11-15T04:09:57;72.85;;;47.08;;
57107;SDS011;42987;52.916;6.542;2022-11-15T04:12:30;80.18;;;48.83;;
57107;SDS011;42987;52.916;6.542;2022-11-15T04:15:05;87.72;;;51.47;;
57107;SDS011;42987;52.916;6.542;2022-11-15T04:17:37;87.47;;;51.22;;
57107;SDS011;42987;52.916;6.542;2022-11-15T04:20:04;98.97;;;54.92;;
57107;SDS011;42987;52.916;6.542;2022-11-15T04:22:54;100.00;;;55.05;;
57107;SDS011;42987;52.916;6.542;2022-11-15T04:25:39;104.18;;;57.05;;
57107;SDS011;42987;52.916;6.542;2022-11-15T04:28:06;95.15;;;56.38;;
57107;SDS011;42987;52.916;6.542;2022-11-15T04:30:32;100.47;;;55.45;;
57107;SDS011;42987;52.916;6.542;2022-11-15T04:32:57;118.25;;;61.60;;
57107;SDS011;42987;52.916;6.542;2022-11-15T04:35:26;113.15;;;60.33;;
57107;SDS011;42987;52.916;6.542;2022-11-15T04:37:52;115.68;;;62.63;;
57107;SDS011;42987;52.916;6.542;2022-11-15T04:40:18;120.97;;;61.17;;
57107;SDS011;42987;52.916;6.542;2022-11-15T04:42:44;132.57;;;66.50;;
57107;SDS011;42987;52.916;6.542;2022-11-15T04:45:10;131.85;;;67.05;;
57107;SDS011;42987;52.916;6.542;2022-11-15T04:47:35;144.82;;;69.43;;
57107;SDS011;42987;52.916;6.542;2022-11-15T04:50:01;108.50;;;61.22;;
57107;SDS011;42987;52.916;6.542;2022-11-15T04:52:28;118.93;;;63.72;;
57107;SDS011;42987;52.916;6.542;2022-11-15T04:54:54;120.28;;;62.33;;
57107;SDS011;42987;52.916;6.542;2022-11-15T04:57:20;109.13;;;59.28;;
57107;SDS011;42987;52.916;6.542;2022-11-15T04:59:46;148.90;;;71.03;;
57107;SDS011;42987;52.916;6.542;2022-11-15T05:02:11;117.03;;;61.92;;
57107;SDS011;42987;52.916;6.542;2022-11-15T05:04:38;122.70;;;64.32;;
57107;SDS011;42987;52.916;6.542;2022-11-15T05:07:04;135.23;;;67.90;;
57107;SDS011;42987;52.916;6.542;2022-11-15T05:09:29;128.75;;;67.75;;
57107;SDS011;42987;52.916;6.542;2022-11-15T05:11:55;126.18;;;68.72;;
57107;SDS011;42987;52.916;6.542;2022-11-15T05:14:21;140.40;;;69.45;;
57107;SDS011;42987;52.916;6.542;2022-11-15T05:16:47;152.20;;;73.63;;
57107;SDS011;42987;52.916;6.542;2022-11-15T05:19:13;153.07;;;74.55;;
57107;SDS011;42987;52.916;6.542;2022-11-15T05:21:39;125.10;;;70.57;;
57107;SDS011;42987;52.916;6.542;2022-11-15T05:24:05;122.88;;;68.40;;
57107;SDS011;42987;52.916;6.542;2022-11-15T05:26:31;117.18;;;66.35;;
57107;SDS011;42987;52.916;6.542;2022-11-15T05:28:57;119.20;;;68.97;;
57107;SDS011;42987;52.916;6.542;2022-11-15T05:31:27;120.43;;;68.35;;
57107;SDS011;42987;52.916;6.542;2022-11-15T05:33:53;113.22;;;66.00;;
57107;SDS011;42987;52.916;6.542;2022-11-15T05:39:04;108.93;;;66.10;;
57107;SDS011;42987;52.916;6.542;2022-11-15T05:41:32;108.47;;;66.65;;
57107;SDS011;42987;52.916;6.542;2022-11-15T05:44:02;103.13;;;64.57;;
57107;SDS011;42987;52.916;6.542;2022-11-15T05:46:31;101.38;;;64.13;;
57107;SDS011;42987;52.916;6.542;2022-11-15T05:48:59;92.63;;;61.92;;
57107;SDS011;42987;52.916;6.542;2022-11-15T05:51:25;92.82;;;62.13;;
57107;SDS011;42987;52.916;6.542;2022-11-15T05:53:53;94.63;;;62.30;;
57107;SDS011;42987;52.916;6.542;2022-11-15T05:56:22;96.55;;;62.42;;
57107;SDS011;42987;52.916;6.542;2022-11-15T05:58:47;87.68;;;61.33;;
57107;SDS011;42987;52.916;6.542;2022-11-15T06:01:13;82.78;;;58.63;;
57107;SDS011;42987;52.916;6.542;2022-11-15T06:03:39;92.72;;;62.45;;
57107;SDS011;42987;52.916;6.542;2022-11-15T06:06:08;82.32;;;58.20;;
57107;SDS011;42987;52.916;6.542;2022-11-15T06:08:33;85.80;;;57.42;;
57107;SDS011;42987;52.916;6.542;2022-11-15T06:11:03;82.30;;;58.05;;
57107;SDS011;42987;52.916;6.542;2022-11-15T06:13:30;94.38;;;63.00;;
57107;SDS011;42987;52.916;6.542;2022-11-15T06:15:56;94.72;;;61.20;;
57107;SDS011;42987;52.916;6.542;2022-11-15T06:18:22;86.63;;;58.72;;
57107;SDS011;42987;52.916;6.542;2022-11-15T06:20:48;86.43;;;57.90;;
57107;SDS011;42987;52.916;6.542;2022-11-15T06:23:13;89.30;;;60.40;;
57107;SDS011;42987;52.916;6.542;2022-11-15T06:25:39;91.97;;;59.33;;
57107;SDS011;42987;52.916;6.542;2022-11-15T06:28:06;89.57;;;59.95;;
57107;SDS011;42987;52.916;6.542;2022-11-15T06:30:32;82.38;;;56.70;;
57107;SDS011;42987;52.916;6.542;2022-11-15T06:33:01;85.60;;;57.88;;
57107;SDS011;42987;52.916;6.542;2022-11-15T06:35:29;79.65;;;56.88;;
57107;SDS011;42987;52.916;6.542;2022-11-15T06:37:55;87.03;;;55.28;;
57107;SDS011;42987;52.916;6.542;2022-11-15T06:40:26;83.75;;;57.05;;
57107;SDS011;42987;52.916;6.542;2022-11-15T06:42:56;80.97;;;54.30;;
57107;SDS011;42987;52.916;6.542;2022-11-15T06:45:25;81.47;;;54.70;;
57107;SDS011;42987;52.916;6.542;2022-11-15T06:47:51;85.43;;;57.05;;
57107;SDS011;42987;52.916;6.542;2022-11-15T06:50:17;86.15;;;57.40;;
57107;SDS011;42987;52.916;6.542;2022-11-15T06:52:43;74.38;;;51.80;;
57107;SDS011;42987;52.916;6.542;2022-11-15T06:55:09;75.78;;;52.33;;
57107;SDS011;42987;52.916;6.542;2022-11-15T06:57:35;74.97;;;53.55;;
57107;SDS011;42987;52.916;6.542;2022-11-15T07:00:02;73.32;;;52.75;;
57107;SDS011;42987;52.916;6.542;2022-11-15T07:02:29;74.00;;;50.88;;
57107;SDS011;42987;52.916;6.542;2022-11-15T07:04:55;70.50;;;49.92;;
57107;SDS011;42987;52.916;6.542;2022-11-15T07:07:21;68.40;;;51.05;;
57107;SDS011;42987;52.916;6.542;2022-11-15T07:09:47;71.45;;;50.28;;
57107;SDS011;42987;52.916;6.542;2022-11-15T07:12:13;62.88;;;46.75;;
57107;SDS011;42987;52.916;6.542;2022-11-15T07:14:39;62.95;;;47.33;;
57107;SDS011;42987;52.916;6.542;2022-11-15T07:17:05;65.22;;;46.88;;
57107;SDS011;42987;52.916;6.542;2022-11-15T07:19:31;62.97;;;49.30;;
57107;SDS011;42987;52.916;6.542;2022-11-15T07:21:57;65.93;;;48.58;;
57107;SDS011;42987;52.916;6.542;2022-11-15T07:24:22;63.83;;;47.90;;
57107;SDS011;42987;52.916;6.542;2022-11-15T07:26:48;58.42;;;45.42;;
57107;SDS011;42987;52.916;6.542;2022-11-15T07:29:14;62.58;;;45.35;;
57107;SDS011;42987;52.916;6.542;2022-11-15T07:31:40;60.78;;;45.70;;
57107;SDS011;42987;52.916;6.542;2022-11-15T07:34:06;61.88;;;46.50;;
57107;SDS011;42987;52.916;6.542;2022-11-15T07:36:32;58.20;;;44.08;;
57107;SDS011;42987;52.916;6.542;2022-11-15T07:38:57;62.95;;;45.70;;
57107;SDS011;42987;52.916;6.542;2022-11-15T07:41:26;52.30;;;42.65;;
57107;SDS011;42987;52.916;6.542;2022-11-15T07:43:52;55.25;;;42.50;;
57107;SDS011;42987;52.916;6.542;2022-11-15T07:46:18;51.47;;;41.78;;
57107;SDS011;42987;52.916;6.542;2022-11-15T07:48:43;51.58;;;42.00;;
57107;SDS011;42987;52.916;6.542;2022-11-15T07:51:15;54.42;;;40.25;;
57107;SDS011;42987;52.916;6.542;2022-11-15T07:53:42;51.83;;;43.05;;
57107;SDS011;42987;52.916;6.542;2022-11-15T07:56:08;51.00;;;40.97;;
57107;SDS011;42987;52.916;6.542;2022-11-15T07:58:35;49.53;;;41.70;;
57107;SDS011;42987;52.916;6.542;2022-11-15T08:01:04;46.88;;;38.35;;
57107;SDS011;42987;52.916;6.542;2022-11-15T08:03:31;49.85;;;40.17;;
57107;SDS011;42987;52.916;6.542;2022-11-15T08:05:58;43.63;;;36.72;;
57107;SDS011;42987;52.916;6.542;2022-11-15T08:08:24;44.78;;;38.97;;
57107;SDS011;42987;52.916;6.542;2022-11-15T08:10:50;43.92;;;37.30;;
57107;SDS011;42987;52.916;6.542;2022-11-15T08:13:16;48.25;;;39.95;;
57107;SDS011;42987;52.916;6.542;2022-11-15T08:15:42;45.78;;;39.65;;
57107;SDS011;42987;52.916;6.542;2022-11-15T08:18:12;45.97;;;37.10;;
57107;SDS011;42987;52.916;6.542;2022-11-15T08:20:41;42.63;;;37.20;;
57107;SDS011;42987;52.916;6.542;2022-11-15T08:23:07;45.97;;;38.45;;
57107;SDS011;42987;52.916;6.542;2022-11-15T08:25:35;44.17;;;38.33;;
57107;SDS011;42987;52.916;6.542;2022-11-15T08:28:02;42.25;;;37.45;;
57107;SDS011;42987;52.916;6.542;2022-11-15T08:30:30;41.05;;;36.58;;
57107;SDS011;42987;52.916;6.542;2022-11-15T08:32:59;41.35;;;36.60;;
57107;SDS011;42987;52.916;6.542;2022-11-15T08:35:25;40.67;;;36.28;;
57107;SDS011;42987;52.916;6.542;2022-11-15T08:37:52;38.30;;;34.33;;
57107;SDS011;42987;52.916;6.542;2022-11-15T08:40:18;39.40;;;35.20;;
57107;SDS011;42987;52.916;6.542;2022-11-15T08:42:48;40.03;;;35.60;;
57107;SDS011;42987;52.916;6.542;2022-11-15T08:45:14;40.58;;;35.65;;
57107;SDS011;42987;52.916;6.542;2022-11-15T08:47:40;39.13;;;35.05;;
57107;SDS011;42987;52.916;6.542;2022-11-15T08:50:06;40.05;;;35.75;;
57107;SDS011;42987;52.916;6.542;2022-11-15T08:52:32;40.53;;;36.13;;
57107;SDS011;42987;52.916;6.542;2022-11-15T08:55:01;40.60;;;35.72;;
57107;SDS011;42987;52.916;6.542;2022-11-15T08:57:30;40.55;;;35.60;;
57107;SDS011;42987;52.916;6.542;2022-11-15T08:59:56;37.55;;;33.40;;
57107;SDS011;42987;52.916;6.542;2022-11-15T09:02:22;38.63;;;34.10;;
57107;SDS011;42987;52.916;6.542;2022-11-15T09:04:48;36.88;;;33.08;;
57107;SDS011;42987;52.916;6.542;2022-11-15T09:07:14;40.08;;;35.80;;
57107;SDS011;42987;52.916;6.542;2022-11-15T09:09:40;37.05;;;33.17;;
57107;SDS011;42987;52.916;6.542;2022-11-15T09:12:06;36.53;;;32.55;;
57107;SDS011;42987;52.916;6.542;2022-11-15T09:14:32;39.38;;;35.15;;
57107;SDS011;42987;52.916;6.542;2022-11-15T09:16:58;38.65;;;34.10;;
57107;SDS011;42987;52.916;6.542;2022-11-15T09:19:24;37.83;;;33.58;;
57107;SDS011;42987;52.916;6.542;2022-11-15T09:21:50;38.03;;;33.90;;
57107;SDS011;42987;52.916;6.542;2022-11-15T09:24:17;37.65;;;33.40;;
57107;SDS011;42987;52.916;6.542;2022-11-15T09:26:42;40.15;;;35.78;;
57107;SDS011;42987;52.916;6.542;2022-11-15T09:29:09;37.75;;;33.80;;
57107;SDS011;42987;52.916;6.542;2022-11-15T09:31:34;36.35;;;32.42;;
57107;SDS011;42987;52.916;6.542;2022-11-15T09:34:00;35.58;;;31.77;;
57107;SDS011;42987;52.916;6.542;2022-11-15T09:36:26;37.35;;;33.25;;
57107;SDS011;42987;52.916;6.542;2022-11-15T09:38:52;38.08;;;34.03;;
57107;SDS011;42987;52.916;6.542;2022-11-15T09:41:22;37.60;;;33.60;;
57107;SDS011;42987;52.916;6.542;2022-11-15T09:43:58;36.40;;;32.58;;
57107;SDS011;42987;52.916;6.542;2022-11-15T09:49:21;35.17;;;31.48;;
57107;SDS011;42987;52.916;6.542;2022-11-15T09:51:48;32.40;;;29.00;;
57107;SDS011;42987;52.916;6.542;2022-11-15T09:56:55;35.42;;;31.17;;
57107;SDS011;42987;52.916;6.542;2022-11-15T10:05:07;31.63;;;28.23;;
57107;SDS011;42987;52.916;6.542;2022-11-15T10:10:41;31.30;;;28.17;;
57107;SDS011;42987;52.916;6.542;2022-11-15T10:15:48;31.83;;;28.48;;
57107;SDS011;42987;52.916;6.542;2022-11-15T10:21:32;32.20;;;28.85;;
57107;SDS011;42987;52.916;6.542;2022-11-15T10:23:41;30.60;;;27.35;;
57107;SDS011;42987;52.916;6.542;2022-11-15T10:26:07;31.17;;;27.98;;
57107;SDS011;42987;52.916;6.542;2022-11-15T10:28:38;30.65;;;27.58;;
57107;SDS011;42987;52.916;6.542;2022-11-15T10:31:10;29.92;;;26.95;;
57107;SDS011;42987;52.916;6.542;2022-11-15T10:33:47;28.48;;;25.38;;
57107;SDS011;42987;52.916;6.542;2022-11-15T10:36:15;27.95;;;25.15;;
57107;SDS011;42987;52.916;6.542;2022-11-15T10:41:19;27.08;;;24.27;;
57107;SDS011;42987;52.916;6.542;2022-11-15T10:48:51;26.20;;;23.40;;
57107;SDS011;42987;52.916;6.542;2022-11-15T10:51:20;20.95;;;18.92;;
57107;SDS011;42987;52.916;6.542;2022-11-15T10:53:57;20.42;;;18.52;;
57107;SDS011;42987;52.916;6.542;2022-11-15T10:56:26;20.05;;;18.05;;
57107;SDS011;42987;52.916;6.542;2022-11-15T10:59:01;20.17;;;18.27;;
57107;SDS011;42987;52.916;6.542;2022-11-15T11:01:27;18.40;;;16.48;;
57107;SDS011;42987;52.916;6.542;2022-11-15T11:04:09;15.30;;;13.52;;
57107;SDS011;42987;52.916;6.542;2022-11-15T11:06:49;14.05;;;12.57;;
57107;SDS011;42987;52.916;6.542;2022-11-15T11:09:31;14.38;;;13.07;;
57107;SDS011;42987;52.916;6.542;2022-11-15T11:11:57;10.82;;;9.73;;
57107;SDS011;42987;52.916;6.542;2022-11-15T11:14:25;12.18;;;9.38;;
57107;SDS011;42987;52.916;6.542;2022-11-15T11:28:26;6.32;;;5.07;;
57107;SDS011;42987;52.916;6.542;2022-11-15T11:33:41;9.43;;;5.60;;
57107;SDS011;42987;52.916;6.542;2022-11-15T11:44:32;9.82;;;4.70;;
57107;SDS011;42987;52.916;6.542;2022-11-15T11:52:16;6.63;;;4.05;;
57107;SDS011;42987;52.916;6.542;2022-11-15T11:54:52;7.97;;;3.70;;
57107;SDS011;42987;52.916;6.542;2022-11-15T12:05:30;6.20;;;3.67;;
57107;SDS011;42987;52.916;6.542;2022-11-15T12:10:40;8.35;;;3.95;;
57107;SDS011;42987;52.916;6.542;2022-11-15T12:13:14;8.18;;;4.82;;
57107;SDS011;42987;52.916;6.542;2022-11-15T12:15:45;8.27;;;5.45;;
57107;SDS011;42987;52.916;6.542;2022-11-15T12:18:18;7.25;;;6.25;;
57107;SDS011;42987;52.916;6.542;2022-11-15T12:21:04;11.30;;;6.07;;
57107;SDS011;42987;52.916;6.542;2022-11-15T12:23:48;10.38;;;6.00;;
57107;SDS011;42987;52.916;6.542;2022-11-15T12:26:18;7.15;;;5.10;;
57107;SDS011;42987;52.916;6.542;2022-11-15T12:28:53;7.88;;;5.32;;
57107;SDS011;42987;52.916;6.542;2022-11-15T12:34:00;6.25;;;4.50;;
57107;SDS011;42987;52.916;6.542;2022-11-15T12:39:08;7.97;;;4.20;;
57107;SDS011;42987;52.916;6.542;2022-11-15T12:41:39;7.40;;;3.85;;
57107;SDS011;42987;52.916;6.542;2022-11-15T12:44:15;6.78;;;3.63;;
57107;SDS011;42987;52.916;6.542;2022-11-15T12:47:13;6.32;;;3.85;;
57107;SDS011;42987;52.916;6.542;2022-11-15T12:49:49;6.68;;;3.25;;
57107;SDS011;42987;52.916;6.542;2022-11-15T12:52:15;5.85;;;3.97;;
57107;SDS011;42987;52.916;6.542;2022-11-15T13:02:24;5.88;;;4.15;;
57107;SDS011;42987;52.916;6.542;2022-11-15T13:17:49;5.97;;;3.50;;
57107;SDS011;42987;52.916;6.542;2022-11-15T13:20:20;8.43;;;3.15;;
57107;SDS011;42987;52.916;6.542;2022-11-15T13:27:58;4.20;;;2.30;;
57107;SDS011;42987;52.916;6.542;2022-11-15T13:30:27;3.80;;;2.03;;
57107;SDS011;42987;52.916;6.542;2022-11-15T13:35:54;4.75;;;2.72;;
57107;SDS011;42987;52.916;6.542;2022-11-15T13:38:30;3.72;;;2.20;;
57107;SDS011;42987;52.916;6.542;2022-11-15T13:40:59;4.75;;;2.20;;
57107;SDS011;42987;52.916;6.542;2022-11-15T13:43:36;5.38;;;2.22;;
57107;SDS011;42987;52.916;6.542;2022-11-15T13:48:37;4.30;;;1.98;;
57107;SDS011;42987;52.916;6.542;2022-11-15T13:51:06;4.53;;;2.40;;
57107;SDS011;42987;52.916;6.542;2022-11-15T13:53:46;7.13;;;2.30;;
57107;SDS011;42987;52.916;6.542;2022-11-15T13:56:17;3.42;;;2.00;;
57107;SDS011;42987;52.916;6.542;2022-11-15T13:58:46;4.47;;;2.22;;
57107;SDS011;42987;52.916;6.542;2022-11-15T14:01:16;4.55;;;1.60;;
57107;SDS011;42987;52.916;6.542;2022-11-15T14:03:52;5.18;;;1.60;;
57107;SDS011;42987;52.916;6.542;2022-11-15T14:06:24;4.78;;;1.50;;
57107;SDS011;42987;52.916;6.542;2022-11-15T14:11:24;5.57;;;1.42;;
57107;SDS011;42987;52.916;6.542;2022-11-15T14:16:42;3.15;;;1.20;;
57107;SDS011;42987;52.916;6.542;2022-11-15T14:19:35;3.40;;;1.60;;
57107;SDS011;42987;52.916;6.542;2022-11-15T14:24:41;4.05;;;1.30;;
57107;SDS011;42987;52.916;6.542;2022-11-15T14:27:27;4.30;;;1.40;;
57107;SDS011;42987;52.916;6.542;2022-11-15T14:29:54;2.92;;;1.30;;
57107;SDS011;42987;52.916;6.542;2022-11-15T14:32:24;4.25;;;1.58;;
57107;SDS011;42987;52.916;6.542;2022-11-15T14:34:55;5.25;;;1.30;;
57107;SDS011;42987;52.916;6.542;2022-11-15T14:37:32;3.78;;;1.35;;
57107;SDS011;42987;52.916;6.542;2022-11-15T14:40:00;4.57;;;1.60;;
57107;SDS011;42987;52.916;6.542;2022-11-15T14:42:27;4.95;;;1.48;;
57107;SDS011;42987;52.916;6.542;2022-11-15T14:44:56;4.63;;;1.90;;
57107;SDS011;42987;52.916;6.542;2022-11-15T14:47:22;5.55;;;1.98;;
57107;SDS011;42987;52.916;6.542;2022-11-15T14:49:48;4.93;;;2.50;;
57107;SDS011;42987;52.916;6.542;2022-11-15T14:54:51;4.18;;;2.92;;
57107;SDS011;42987;52.916;6.542;2022-11-15T14:57:17;4.85;;;3.05;;
57107;SDS011;42987;52.916;6.542;2022-11-15T14:59:43;4.85;;;3.10;;
57107;SDS011;42987;52.916;6.542;2022-11-15T15:02:22;5.53;;;3.00;;
57107;SDS011;42987;52.916;6.542;2022-11-15T15:04:50;4.90;;;3.10;;
57107;SDS011;42987;52.916;6.542;2022-11-15T15:07:16;5.22;;;3.22;;
57107;SDS011;42987;52.916;6.542;2022-11-15T15:09:43;5.72;;;4.28;;
57107;SDS011;42987;52.916;6.542;2022-11-15T15:14:42;7.07;;;4.80;;
57107;SDS011;42987;52.916;6.542;2022-11-15T15:17:09;8.20;;;5.55;;
57107;SDS011;42987;52.916;6.542;2022-11-15T15:19:35;7.07;;;6.25;;
57107;SDS011;42987;52.916;6.542;2022-11-15T15:22:00;7.70;;;6.90;;
57107;SDS011;42987;52.916;6.542;2022-11-15T15:24:26;7.32;;;6.57;;
57107;SDS011;42987;52.916;6.542;2022-11-15T15:26:52;9.82;;;6.55;;
57107;SDS011;42987;52.916;6.542;2022-11-15T15:29:18;7.72;;;6.32;;
57107;SDS011;42987;52.916;6.542;2022-11-15T15:31:44;7.10;;;6.43;;
57107;SDS011;42987;52.916;6.542;2022-11-15T15:34:10;8.60;;;6.40;;
57107;SDS011;42987;52.916;6.542;2022-11-15T15:36:35;7.13;;;6.43;;
57107;SDS011;42987;52.916;6.542;2022-11-15T15:39:01;8.20;;;6.90;;
57107;SDS011;42987;52.916;6.542;2022-11-15T15:41:27;7.93;;;7.07;;
57107;SDS011;42987;52.916;6.542;2022-11-15T15:43:56;7.30;;;6.70;;
57107;SDS011;42987;52.916;6.542;2022-11-15T15:46:21;7.43;;;6.65;;
57107;SDS011;42987;52.916;6.542;2022-11-15T15:48:47;8.07;;;7.28;;
57107;SDS011;42987;52.916;6.542;2022-11-15T15:51:13;8.02;;;7.25;;
57107;SDS011;42987;52.916;6.542;2022-11-15T15:53:39;7.72;;;6.93;;
57107;SDS011;42987;52.916;6.542;2022-11-15T15:56:05;8.85;;;8.02;;
57107;SDS011;42987;52.916;6.542;2022-11-15T15:58:33;9.27;;;7.57;;
57107;SDS011;42987;52.916;6.542;2022-11-15T16:00:59;7.93;;;7.13;;
57107;SDS011;42987;52.916;6.542;2022-11-15T16:03:25;7.95;;;6.32;;
57107;SDS011;42987;52.916;6.542;2022-11-15T16:05:52;7.72;;;6.90;;
57107;SDS011;42987;52.916;6.542;2022-11-15T16:08:19;6.57;;;5.95;;
57107;SDS011;42987;52.916;6.542;2022-11-15T16:10:46;8.07;;;6.45;;
57107;SDS011;42987;52.916;6.542;2022-11-15T16:13:13;7.28;;;5.60;;
57107;SDS011;42987;52.916;6.542;2022-11-15T16:15:39;6.57;;;4.97;;
57107;SDS011;42987;52.916;6.542;2022-11-15T16:18:05;7.10;;;5.07;;
57107;SDS011;42987;52.916;6.542;2022-11-15T16:20:38;5.55;;;4.72;;
57107;SDS011;42987;52.916;6.542;2022-11-15T16:23:07;5.78;;;4.72;;
57107;SDS011;42987;52.916;6.542;2022-11-15T16:25:36;5.57;;;4.38;;
57107;SDS011;42987;52.916;6.542;2022-11-15T16:28:23;5.77;;;4.03;;
57107;SDS011;42987;52.916;6.542;2022-11-15T16:33:27;6.45;;;3.85;;
57107;SDS011;42987;52.916;6.542;2022-11-15T16:35:53;5.25;;;3.42;;
57107;SDS011;42987;52.916;6.542;2022-11-15T16:38:18;6.65;;;3.92;;
57107;SDS011;42987;52.916;6.542;2022-11-15T16:40:44;6.13;;;3.40;;
57107;SDS011;42987;52.916;6.542;2022-11-15T16:43:10;5.70;;;3.60;;
57107;SDS011;42987;52.916;6.542;2022-11-15T16:45:36;5.35;;;2.60;;
57107;SDS011;42987;52.916;6.542;2022-11-15T16:48:02;4.75;;;2.75;;
57107;SDS011;42987;52.916;6.542;2022-11-15T16:50:29;4.75;;;2.70;;
57107;SDS011;42987;52.916;6.542;2022-11-15T16:55:26;6.30;;;2.63;;
57107;SDS011;42987;52.916;6.542;2022-11-15T16:57:54;4.20;;;2.42;;
57107;SDS011;42987;52.916;6.542;2022-11-15T17:00:22;4.47;;;1.70;;
57107;SDS011;42987;52.916;6.542;2022-11-15T17:02:49;3.83;;;1.88;;
57107;SDS011;42987;52.916;6.542;2022-11-15T17:05:16;3.05;;;1.70;;
57107;SDS011;42987;52.916;6.542;2022-11-15T17:07:45;4.80;;;1.48;;
57107;SDS011;42987;52.916;6.542;2022-11-15T17:10:16;3.25;;;1.50;;
57107;SDS011;42987;52.916;6.542;2022-11-15T17:12:42;3.10;;;1.75;;
57107;SDS011;42987;52.916;6.542;2022-11-15T17:15:09;4.75;;;1.58;;
57107;SDS011;42987;52.916;6.542;2022-11-15T17:17:36;3.78;;;1.50;;